Terminal Aerodrome Forecast
Issued by NWS Fort Wayne, IN

Home | Current Version | Previous Version | Text Only | Print | Product List | Glossary Off
Versions: 1 2 3 4 5 6 7 8 9 10 11 12 13 14 15 16 17 18

000
FTUS43 KIWX 051300 AAA
TAFFWA
TAF AMD
KFWA 051358Z 0514/0612 16008KT 5SM BR SCT020 OVC060
      TEMPO 0514/0518 3SM SHRA BR OVC020
     FM051800 20010KT 5SM -SHRA BR OVC020
     FM052300 15005KT 6SM BR OVC020
     FM060800 VRB03KT 3SM BR BKN035
      TEMPO 0610/0612 1SM BR=

USA.gov is the U.S. government's official web portal to all federal, state and local government web resources and services.